createdAt,value
2023-02-13T00:00:00.474Z,10.50
2023-02-13T00:04:09.033Z,8.37
2023-02-13T00:08:17.673Z,7.63
2023-02-13T00:12:26.254Z,8.10
2023-02-13T00:16:35.142Z,7.60
2023-02-13T00:20:43.728Z,6.87
2023-02-13T00:24:52.572Z,6.93
2023-02-13T00:29:01.099Z,7.40
2023-02-13T00:33:09.650Z,5.97
2023-02-13T00:37:18.369Z,6.20
2023-02-13T00:41:27.100Z,6.50
2023-02-13T00:45:35.650Z,7.20
2023-02-13T00:49:44.224Z,6.23
2023-02-13T00:53:52.788Z,5.10
2023-02-13T00:58:01.378Z,6.67
2023-02-13T01:02:09.985Z,6.13
2023-02-13T01:06:18.551Z,6.07
2023-02-13T01:10:28.145Z,6.30
2023-02-13T01:14:36.790Z,6.90
2023-02-13T01:18:46.194Z,6.60
2023-02-13T01:22:55.186Z,4.70
2023-02-13T01:27:03.769Z,7.07
2023-02-13T01:31:12.402Z,5.67
2023-02-13T01:35:21.146Z,5.63
2023-02-13T01:39:29.785Z,5.43
2023-02-13T01:43:52.678Z,5.97
2023-02-13T01:48:10.073Z,6.87
2023-02-13T01:52:19.092Z,6.23
2023-02-13T01:56:36.423Z,6.80
2023-02-13T02:00:47.550Z,5.90
2023-02-13T02:04:56.962Z,6.97
2023-02-13T02:09:08.608Z,6.53
2023-02-13T02:13:22.438Z,5.73
2023-02-13T02:17:31.085Z,6.67
2023-02-13T02:21:45.341Z,8.70
2023-02-13T02:26:11.640Z,5.70
2023-02-13T02:30:41.320Z,7.67
2023-02-13T02:35:07.561Z,7.30
2023-02-13T02:39:24.874Z,6.90
2023-02-13T02:43:51.609Z,6.20
2023-02-13T02:48:32.611Z,7.80
2023-02-13T02:52:44.226Z,7.10
2023-02-13T02:56:55.647Z,6.20
2023-02-13T03:01:25.017Z,7.23
2023-02-13T03:05:54.132Z,7.47
2023-02-13T03:10:23.444Z,8.17
2023-02-13T03:14:31.997Z,6.50
2023-02-13T03:19:01.865Z,7.77
2023-02-13T03:23:16.421Z,7.27
2023-02-13T03:27:35.593Z,6.63
2023-02-13T03:31:50.264Z,6.70
2023-02-13T03:36:18.102Z,7.03
2023-02-13T03:40:32.549Z,7.17
2023-02-13T03:44:46.896Z,6.83
2023-02-13T03:49:14.789Z,6.47
2023-02-13T03:53:25.277Z,7.10
2023-02-13T03:57:55.059Z,6.87
2023-02-13T04:02:15.785Z,6.83
2023-02-13T04:06:30.127Z,6.63
2023-02-13T04:10:42.087Z,6.53
2023-02-13T04:15:05.135Z,7.13
2023-02-13T04:19:14.428Z,7.10
2023-02-13T04:23:23.141Z,6.43
2023-02-13T04:27:31.858Z,7.00
2023-02-13T04:31:40.744Z,6.60
2023-02-13T04:35:49.264Z,5.72
2023-02-13T04:39:57.813Z,5.73
2023-02-13T04:44:06.453Z,5.93
2023-02-13T04:48:15.102Z,5.23
2023-02-13T04:52:23.726Z,7.20
2023-02-13T04:56:32.281Z,5.97
2023-02-13T05:00:41.001Z,7.20
2023-02-13T05:04:49.668Z,5.47
2023-02-13T05:08:58.283Z,7.20
2023-02-13T05:13:07.088Z,6.93
2023-02-13T05:17:15.641Z,5.80
2023-02-13T05:21:41.911Z,6.87
2023-02-13T05:25:51.294Z,6.40
2023-02-13T05:29:59.814Z,6.17
2023-02-13T05:34:08.376Z,7.00
2023-02-13T05:38:16.960Z,8.23
2023-02-13T05:42:25.500Z,6.90
2023-02-13T05:46:34.165Z,5.93
2023-02-13T05:50:42.651Z,6.03
2023-02-13T05:54:51.261Z,6.33
2023-02-13T05:58:59.796Z,8.33
2023-02-13T06:03:08.365Z,6.60
2023-02-13T06:07:16.937Z,7.97
2023-02-13T06:11:25.535Z,7.20
2023-02-13T06:15:34.168Z,7.70
2023-02-13T06:19:42.785Z,8.63
2023-02-13T06:23:51.325Z,6.80
2023-02-13T06:28:00.001Z,7.40
2023-02-13T06:32:08.607Z,8.20
2023-02-13T06:36:17.143Z,7.30
2023-02-13T06:40:25.699Z,6.67
2023-02-13T06:44:34.266Z,7.13
2023-02-13T06:48:42.817Z,6.73
2023-02-13T06:52:52.705Z,7.53
2023-02-13T06:57:01.246Z,7.00
2023-02-13T07:01:10.097Z,7.50
2023-02-13T07:05:18.739Z,8.33
2023-02-13T07:09:27.446Z,8.00
2023-02-13T07:13:36.007Z,8.70
2023-02-13T07:17:44.569Z,9.37
2023-02-13T07:21:53.119Z,10.23
2023-02-13T07:26:02.529Z,9.23
2023-02-13T07:30:11.843Z,13.30
2023-02-13T07:34:20.392Z,9.97
2023-02-13T07:38:29.472Z,9.67
2023-02-13T07:42:38.006Z,9.87
2023-02-13T07:46:46.599Z,9.50
2023-02-13T07:50:56.185Z,12.43
2023-02-13T07:55:06.088Z,9.50
2023-02-13T07:59:14.723Z,9.43
2023-02-13T08:03:23.646Z,9.37
2023-02-13T08:07:32.294Z,9.50
2023-02-13T08:11:56.557Z,10.87
2023-02-13T08:16:05.314Z,8.90
2023-02-13T08:20:13.984Z,9.60
2023-02-13T08:24:22.591Z,9.13
2023-02-13T08:28:31.544Z,8.90
2023-02-13T08:32:53.517Z,9.90
2023-02-13T08:36:50.383Z,10.00
2023-02-13T08:40:59.433Z,10.20
2023-02-13T08:45:10.020Z,10.27
2023-02-13T08:49:18.592Z,9.90
2023-02-13T08:53:27.229Z,10.00
2023-02-13T08:57:35.811Z,10.30
2023-02-13T09:01:44.391Z,8.10
2023-02-13T09:05:52.933Z,9.30
2023-02-13T09:10:02.245Z,9.30
2023-02-13T09:14:10.820Z,10.67
2023-02-13T09:18:19.413Z,8.53
2023-02-13T09:22:28.108Z,8.33
2023-02-13T09:26:36.698Z,9.30
2023-02-13T09:30:45.267Z,9.70
2023-02-13T09:34:53.779Z,8.83
2023-02-13T09:39:02.492Z,9.30
2023-02-13T09:43:19.644Z,10.27
2023-02-13T09:47:44.876Z,9.60
2023-02-13T09:51:56.517Z,8.50
2023-02-13T09:56:09.727Z,10.00
2023-02-13T10:00:24.096Z,8.40
2023-02-13T10:04:44.521Z,8.57
2023-02-13T10:08:58.775Z,7.60
2023-02-13T10:13:44.955Z,9.07
2023-02-13T10:17:56.596Z,9.27
2023-02-13T10:22:23.500Z,9.37
2023-02-13T10:26:45.373Z,7.40
2023-02-13T10:30:59.680Z,9.90
2023-02-13T10:35:11.325Z,9.47
2023-02-13T10:39:25.500Z,11.10
2023-02-13T10:43:55.001Z,8.40
2023-02-13T10:48:09.444Z,9.60
2023-02-13T10:52:54.202Z,8.27
2023-02-13T10:57:21.893Z,8.73
2023-02-13T11:01:36.508Z,9.70
2023-02-13T11:05:45.151Z,10.17
2023-02-13T11:09:56.693Z,9.87
2023-02-13T11:14:17.330Z,8.60
2023-02-13T11:18:28.510Z,8.40
2023-02-13T11:22:45.190Z,9.50
2023-02-13T11:27:07.748Z,9.73
2023-02-13T11:31:22.068Z,10.15
2023-02-13T11:35:34.050Z,10.17
2023-02-13T11:39:44.457Z,9.00
2023-02-13T11:44:00.738Z,8.37
2023-02-13T11:48:17.897Z,8.97
2023-02-13T11:52:32.419Z,7.90
2023-02-13T11:57:03.933Z,8.67
2023-02-13T12:01:24.528Z,7.50
2023-02-13T12:05:33.102Z,10.00
2023-02-13T12:09:42.117Z,8.20
2023-02-13T12:13:52.494Z,7.17
2023-02-13T12:18:16.159Z,7.13
2023-02-13T12:22:42.508Z,7.63
2023-02-13T12:26:54.176Z,8.37
2023-02-13T12:31:11.590Z,7.20
2023-02-13T12:35:25.833Z,8.40
2023-02-13T12:39:40.525Z,7.63
2023-02-13T12:44:13.160Z,8.80
2023-02-13T12:48:30.455Z,7.80
2023-02-13T12:52:53.914Z,7.30
2023-02-13T12:57:26.599Z,7.43
2023-02-13T13:01:54.693Z,6.67
2023-02-13T13:06:14.673Z,7.17
2023-02-13T13:10:34.825Z,6.67
2023-02-13T13:14:55.549Z,8.17
2023-02-13T13:19:25.092Z,7.30
2023-02-13T13:23:58.672Z,6.57
2023-02-13T13:28:10.304Z,7.80
2023-02-13T13:32:22.177Z,6.70
2023-02-13T13:36:42.604Z,6.50
2023-02-13T13:41:00.444Z,8.73
2023-02-13T13:45:20.432Z,7.03
2023-02-13T13:49:54.448Z,6.77
2023-02-13T13:54:06.050Z,6.40
2023-02-13T13:58:23.624Z,6.87
2023-02-13T14:02:41.016Z,6.03
2023-02-13T14:06:52.594Z,6.53
2023-02-13T14:11:03.783Z,6.17
2023-02-13T14:15:31.859Z,5.97
2023-02-13T14:19:43.359Z,7.93
2023-02-13T14:23:53.600Z,7.47
2023-02-13T14:28:05.326Z,5.70
2023-02-13T14:32:22.643Z,7.10
2023-02-13T14:36:52.082Z,6.10
2023-02-13T14:41:01.073Z,6.77
2023-02-13T14:45:21.727Z,6.33
2023-02-13T14:49:33.391Z,5.63
2023-02-13T14:53:50.867Z,6.87
2023-02-13T14:58:04.122Z,6.17
2023-02-13T15:02:28.374Z,5.00
2023-02-13T15:06:40.354Z,5.20
2023-02-13T15:10:51.973Z,6.37
2023-02-13T15:15:01.894Z,5.67
2023-02-13T15:19:19.004Z,6.00
2023-02-13T15:23:30.706Z,6.30
2023-02-13T15:27:42.346Z,6.50
2023-02-13T15:31:51.131Z,7.23
2023-02-13T15:36:05.937Z,7.13
2023-02-13T15:40:26.678Z,7.10
2023-02-13T15:44:40.597Z,6.03
2023-02-13T15:48:49.592Z,6.43
2023-02-13T15:52:58.846Z,8.47
2023-02-13T15:57:09.824Z,7.00
2023-02-13T16:01:19.126Z,8.00
2023-02-13T16:05:39.304Z,7.42
2023-02-13T16:09:39.254Z,7.83
2023-02-13T16:14:05.811Z,7.77
2023-02-13T16:18:20.437Z,7.93
2023-02-13T16:22:34.844Z,7.07
2023-02-13T16:26:44.552Z,8.10
2023-02-13T16:30:56.669Z,7.50
2023-02-13T16:35:26.421Z,9.00
2023-02-13T16:39:35.076Z,7.87
2023-02-13T16:43:46.824Z,8.90
2023-02-13T16:48:03.336Z,9.20
2023-02-13T16:52:18.280Z,7.70
2023-02-13T16:56:27.088Z,7.57
2023-02-13T17:00:35.730Z,7.97
2023-02-13T17:04:52.374Z,8.10
2023-02-13T17:09:00.921Z,7.77
2023-02-13T17:13:17.142Z,7.87
2023-02-13T17:17:27.593Z,9.00
2023-02-13T17:21:36.607Z,9.90
2023-02-13T17:25:47.043Z,8.30
2023-02-13T17:29:55.721Z,8.57
2023-02-13T17:34:05.491Z,8.90
2023-02-13T17:38:14.118Z,8.50
2023-02-13T17:42:30.951Z,7.90
2023-02-13T17:46:39.492Z,8.10
2023-02-13T17:50:49.990Z,8.20
2023-02-13T17:54:58.543Z,8.90
2023-02-13T17:59:07.102Z,9.83
2023-02-13T18:03:15.718Z,7.90
2023-02-13T18:07:24.285Z,8.30
2023-02-13T18:11:32.829Z,8.53
2023-02-13T18:15:44.234Z,8.07
2023-02-13T18:19:52.821Z,7.83
2023-02-13T18:24:01.353Z,8.20
2023-02-13T18:28:09.919Z,8.83
2023-02-13T18:32:18.471Z,8.07
2023-02-13T18:36:27.118Z,7.60
2023-02-13T18:40:36.433Z,8.40
2023-02-13T18:44:47.742Z,9.20
2023-02-13T18:48:56.550Z,8.87
2023-02-13T18:53:05.176Z,8.40
2023-02-13T18:57:13.740Z,8.03
2023-02-13T19:01:23.147Z,7.60
2023-02-13T19:05:31.763Z,9.40
2023-02-13T19:09:40.431Z,9.10
2023-02-13T19:13:48.981Z,8.47
2023-02-13T19:17:57.550Z,9.13
2023-02-13T19:22:06.077Z,7.00
2023-02-13T19:26:20.639Z,8.03
2023-02-13T19:30:29.274Z,8.23
2023-02-13T19:34:37.853Z,8.93
2023-02-13T19:38:47.063Z,8.60
2023-02-13T19:42:55.578Z,9.67
2023-02-13T19:47:04.250Z,9.33
2023-02-13T19:51:15.373Z,8.40
2023-02-13T19:55:27.617Z,8.10
2023-02-13T19:59:36.170Z,9.13
2023-02-13T20:03:45.359Z,8.00
2023-02-13T20:07:53.914Z,8.03
2023-02-13T20:12:02.725Z,9.37
2023-02-13T20:16:14.096Z,8.43
2023-02-13T20:20:22.764Z,9.30
2023-02-13T20:24:32.899Z,8.27
2023-02-13T20:28:42.986Z,8.30
2023-02-13T20:32:51.554Z,8.23
2023-02-13T20:37:00.113Z,7.97
2023-02-13T20:41:14.811Z,8.30
2023-02-13T20:45:23.425Z,8.80
2023-02-13T20:49:32.044Z,11.27
2023-02-13T20:53:41.222Z,10.33
2023-02-13T20:57:49.764Z,9.50
2023-02-13T21:01:58.319Z,7.70
2023-02-13T21:06:07.962Z,8.30
2023-02-13T21:10:16.652Z,8.30
2023-02-13T21:14:25.199Z,8.73
2023-02-13T21:18:34.197Z,7.63
2023-02-13T21:22:42.777Z,8.13
2023-02-13T21:26:53.079Z,7.40
2023-02-13T21:31:07.418Z,8.00
2023-02-13T21:35:16.104Z,8.53
2023-02-13T21:39:24.803Z,9.13
2023-02-13T21:43:35.015Z,8.30
2023-02-13T21:47:45.466Z,8.85
2023-02-13T21:51:54.204Z,8.40
2023-02-13T21:56:07.089Z,7.87
2023-02-13T22:00:16.301Z,8.27
2023-02-13T22:04:24.845Z,6.50
2023-02-13T22:08:33.420Z,7.30
2023-02-13T22:12:41.991Z,7.17
2023-02-13T22:16:51.922Z,7.13
2023-02-13T22:21:06.143Z,6.47
2023-02-13T22:25:14.956Z,6.10
2023-02-13T22:29:23.791Z,6.77
2023-02-13T22:33:34.239Z,5.40
2023-02-13T22:37:42.795Z,5.07
2023-02-13T22:41:51.360Z,5.00
2023-02-13T22:46:14.823Z,5.87
2023-02-13T22:50:23.429Z,5.73
2023-02-13T22:54:32.062Z,5.70
2023-02-13T22:58:40.679Z,5.17
2023-02-13T23:02:52.008Z,5.43
2023-02-13T23:07:00.578Z,5.80
2023-02-13T23:11:29.748Z,5.03
2023-02-13T23:15:38.690Z,5.60
2023-02-13T23:19:47.305Z,5.60
2023-02-13T23:23:55.864Z,5.40
2023-02-13T23:28:05.059Z,8.17
2023-02-13T23:32:13.749Z,6.77
2023-02-13T23:36:22.397Z,6.27
2023-02-13T23:40:31.010Z,6.10
2023-02-13T23:44:39.572Z,5.10
2023-02-13T23:48:48.129Z,5.57
2023-02-13T23:52:56.677Z,5.87
2023-02-13T23:57:05.611Z,4.87
